Hlavní strana
METAR-TAF:

METAR-TAF

Letiště :

Blytheville, Arkansas, Spojené státy americké

zeměpisná šířka: 35-58N, zeměpisná délka: 089-57W, výška: 78 m

Aktuální stav počasí

Zpráva byla vytvořena před 3 hodinami a 30 minutami, v 22:50 UTC
Bezvětří
Teplota 9°C
Vlhkost vzduchu 81%
Tlak 1013 hPa
Viditelnost: 16.1 km
Polojasno ve výšce 2000 ft
Oblačno až skoro zataženo ve výšce 2800 ft
Zataženo ve výšce 3700 ft

METAR: KBYH 252250Z 00000KT 10SM SCT020 BKN028 OVC037 09/06 A2991 RMK LAST

Čas: 20:20 (02:20 UTC)


TAF: chybějící

Stav a předpovědi počasí z více než 4 000 letišť (zprávy METAR a TAF).

Červené a žluté tečky na mapě představují dostupné meteorologické stanice.

Když kurzor umístíte na tečku, zobrazí se název stanice.

Pak kliknutím zobrazíte stav a předpověď počasí.

Chcete-li změnit mapu, kliknutím na zelené tlačítko se znaménkem +mapu přiblížíte, kliknutím na zelené tlačítko se znaménkem – mapu oddálíte a kliknutím na zelené šipky přejdete na sousední mapy.


METAR-TAF: